Dyer, Kentucky
Current Conditions -  °F | °C
As of 3:58 AM on Thursday 23 Oct 2014 (Local Time) from KFTK Reporting Station
Clear Clear  
Wind Chill: 40°   Ceiling: Unl
Heat Index: 40°   Visibility: 10mi
Dew Point: 38°   Wind: 2mph
Humidity: 91%   Direction: 50°NE
Pressure: 30.23"   Gusts: NA
Location:  37.7438°N, 86.2725°W
Report Text: KFTK 230858Z AUTO 05002KT 10SM CLR 04/03 A3023 RMK AO2 SLP241 T00440031 58002
Loading
Personal Weather Stations






























Interactive Weather Map
Tropical Storm Tracking
New forecast layout! Learn more

10-Day Weather Forecast

Advertisements
Track Severe Weather on mobile